createdAt,value
2019-05-26T00:01:36.907Z,90.60
2019-05-26T00:04:06.254Z,90.40
2019-05-26T00:06:35.647Z,90.50
2019-05-26T00:09:06.792Z,90.40
2019-05-26T00:11:36.396Z,90.40
2019-05-26T00:14:05.807Z,90.30
2019-05-26T00:16:35.127Z,90.40
2019-05-26T00:19:06.966Z,90.20
2019-05-26T00:21:36.331Z,90.10
2019-05-26T00:24:05.655Z,90.50
2019-05-26T00:26:34.978Z,90.70
2019-05-26T00:29:04.623Z,90.70
2019-05-26T00:31:35.003Z,90.80
2019-05-26T00:34:04.515Z,90.60
2019-05-26T00:36:34.216Z,91.10
2019-05-26T00:39:04.997Z,91.10
2019-05-26T00:41:34.704Z,91.30
2019-05-26T00:44:04.461Z,91.50
2019-05-26T00:46:34.227Z,91.40
2019-05-26T00:49:03.707Z,91.80
2019-05-26T00:51:33.447Z,91.80
2019-05-26T00:54:03.170Z,91.90
2019-05-26T00:56:32.623Z,92.10
2019-05-26T00:59:02.121Z,92.50
2019-05-26T01:01:32.470Z,92.70
2019-05-26T01:04:01.807Z,92.40
2019-05-26T01:06:31.392Z,92.70
2019-05-26T01:09:00.726Z,92.70
2019-05-26T01:11:30.379Z,92.70
2019-05-26T01:13:59.791Z,92.90
2019-05-26T01:16:29.457Z,93.00
2019-05-26T01:18:58.795Z,93.40
2019-05-26T01:21:29.004Z,93.50
2019-05-26T01:23:58.737Z,93.50
2019-05-26T01:26:28.073Z,93.50
2019-05-26T01:28:57.679Z,93.90
2019-05-26T01:31:27.258Z,94.10
2019-05-26T01:33:56.691Z,94.10
2019-05-26T01:36:26.560Z,94.10
2019-05-26T01:38:56.315Z,94.20
2019-05-26T01:41:25.934Z,94.50
2019-05-26T01:43:55.254Z,94.40
2019-05-26T01:46:24.945Z,94.40
2019-05-26T01:48:54.581Z,94.70
2019-05-26T01:51:23.923Z,94.70
2019-05-26T01:53:53.499Z,94.70
2019-05-26T01:56:23.084Z,94.90
2019-05-26T01:58:52.487Z,94.80
2019-05-26T02:01:22.076Z,94.80
2019-05-26T02:03:51.736Z,95.20
2019-05-26T02:06:21.126Z,95.00
2019-05-26T02:08:50.738Z,95.20
2019-05-26T02:11:20.136Z,95.40
2019-05-26T02:13:49.840Z,95.60
2019-05-26T02:16:19.398Z,95.50
2019-05-26T02:18:48.745Z,95.70
2019-05-26T02:21:18.438Z,95.80
2019-05-26T02:23:47.760Z,96.10
2019-05-26T02:26:17.084Z,96.40
2019-05-26T02:28:46.654Z,96.30
2019-05-26T02:31:16.056Z,96.80
2019-05-26T02:33:45.376Z,96.70
2019-05-26T02:36:14.703Z,96.90
2019-05-26T02:39:01.106Z,97.70
2019-05-26T02:41:15.130Z,97.50
2019-05-26T02:43:44.714Z,97.50
2019-05-26T02:46:14.286Z,97.80
2019-05-26T02:48:43.753Z,97.70
2019-05-26T02:51:13.218Z,97.90
2019-05-26T02:53:42.528Z,97.70
2019-05-26T02:56:12.280Z,97.90
2019-05-26T02:58:41.620Z,97.80
2019-05-26T03:01:11.035Z,98.00
2019-05-26T03:03:40.428Z,97.80
2019-05-26T03:06:10.038Z,97.90
2019-05-26T03:08:40.648Z,97.90
2019-05-26T03:11:12.032Z,98.00
2019-05-26T03:13:44.791Z,97.80
2019-05-26T03:16:14.856Z,97.80
2019-05-26T03:18:45.721Z,98.00
2019-05-26T03:21:17.849Z,98.00
2019-05-26T03:23:49.757Z,97.90
2019-05-26T03:26:20.206Z,98.00
2019-05-26T03:28:49.601Z,98.00
2019-05-26T03:31:19.040Z,98.20
2019-05-26T03:33:48.472Z,98.10
2019-05-26T03:36:17.791Z,98.40
2019-05-26T03:38:47.391Z,98.00
2019-05-26T03:41:16.814Z,98.10
2019-05-26T03:43:47.131Z,98.10
2019-05-26T03:46:17.499Z,98.30
2019-05-26T03:48:47.125Z,98.40
2019-05-26T03:51:16.701Z,98.70
2019-05-26T03:53:46.365Z,98.70
2019-05-26T03:56:16.013Z,98.60
2019-05-26T03:58:45.506Z,99.00
2019-05-26T04:01:15.094Z,99.00
2019-05-26T04:03:44.688Z,99.00
2019-05-26T04:06:15.343Z,98.90
2019-05-26T04:08:44.748Z,98.60
2019-05-26T04:11:14.154Z,98.70
2019-05-26T04:13:43.475Z,98.50
2019-05-26T04:16:13.110Z,98.40
2019-05-26T04:18:42.456Z,98.20
2019-05-26T04:21:11.800Z,98.20
2019-05-26T04:23:41.136Z,98.10
2019-05-26T04:26:10.733Z,98.10
2019-05-26T04:28:40.092Z,98.00
2019-05-26T04:31:09.676Z,97.90
2019-05-26T04:33:38.998Z,97.80
2019-05-26T04:36:09.409Z,97.70
2019-05-26T04:38:38.739Z,97.50
2019-05-26T04:41:08.095Z,97.30
2019-05-26T04:43:37.436Z,97.00
2019-05-26T04:46:07.831Z,96.70
2019-05-26T04:48:37.399Z,96.50
2019-05-26T04:51:06.883Z,96.30
2019-05-26T04:53:36.279Z,96.10
2019-05-26T04:56:05.665Z,95.80
2019-05-26T04:58:35.030Z,95.40
2019-05-26T05:01:04.492Z,95.00
2019-05-26T05:03:33.972Z,94.70
2019-05-26T05:06:03.318Z,94.40
2019-05-26T05:08:32.946Z,93.80
2019-05-26T05:11:02.356Z,93.70
2019-05-26T05:13:31.959Z,93.30
2019-05-26T05:16:01.287Z,93.00
2019-05-26T05:18:30.615Z,92.70
2019-05-26T05:21:00.019Z,92.50
2019-05-26T05:23:29.386Z,92.30
2019-05-26T05:25:59.019Z,92.50
2019-05-26T05:28:28.696Z,92.30
2019-05-26T05:30:58.348Z,92.20
2019-05-26T05:33:27.959Z,92.20
2019-05-26T05:35:57.297Z,92.10
2019-05-26T05:38:26.868Z,92.00
2019-05-26T05:40:59.950Z,91.90
2019-05-26T05:43:27.357Z,91.60
2019-05-26T05:45:56.731Z,91.40
2019-05-26T05:48:26.341Z,91.10
2019-05-26T05:50:55.691Z,90.80
2019-05-26T05:53:25.379Z,90.60
2019-05-26T05:55:54.791Z,90.60
2019-05-26T05:58:25.375Z,90.30
2019-05-26T06:00:54.956Z,89.90
2019-05-26T06:03:25.271Z,89.00
2019-05-26T06:05:54.588Z,89.00
2019-05-26T06:08:24.268Z,88.90
2019-05-26T06:10:53.894Z,88.40
2019-05-26T06:13:23.240Z,88.00
2019-05-26T06:15:52.902Z,88.70
2019-05-26T06:18:22.624Z,87.80
2019-05-26T06:20:53.041Z,88.30
2019-05-26T06:23:22.648Z,87.60
2019-05-26T06:25:52.030Z,88.30
2019-05-26T06:28:21.667Z,87.80
2019-05-26T06:30:51.079Z,87.80
2019-05-26T06:33:20.704Z,87.90
2019-05-26T06:35:50.047Z,88.30
2019-05-26T06:38:19.384Z,87.90
2019-05-26T06:40:48.787Z,87.70
2019-05-26T06:43:18.206Z,87.80
2019-05-26T06:45:47.609Z,87.90
2019-05-26T06:48:17.214Z,87.40
2019-05-26T06:50:46.560Z,86.60
2019-05-26T06:53:15.892Z,87.40
2019-05-26T06:55:45.595Z,86.20
2019-05-26T06:58:14.906Z,86.30
2019-05-26T07:00:44.489Z,85.50
2019-05-26T07:03:14.063Z,85.30
2019-05-26T07:05:43.560Z,84.70
2019-05-26T07:08:12.965Z,83.30
2019-05-26T07:10:42.451Z,82.50
2019-05-26T07:13:11.865Z,82.60
2019-05-26T07:15:41.614Z,81.30
2019-05-26T07:18:10.958Z,79.30
2019-05-26T07:20:40.610Z,79.70
2019-05-26T07:23:11.291Z,79.60
2019-05-26T07:25:41.237Z,78.90
2019-05-26T07:28:10.657Z,78.90
2019-05-26T07:30:40.063Z,78.00
2019-05-26T07:33:09.423Z,76.00
2019-05-26T07:35:39.071Z,75.70
2019-05-26T07:38:10.249Z,73.50
2019-05-26T07:40:39.843Z,72.80
2019-05-26T07:43:09.557Z,71.60
2019-05-26T07:45:38.944Z,70.00
2019-05-26T07:48:09.525Z,69.60
2019-05-26T07:50:38.929Z,69.50
2019-05-26T07:53:08.314Z,69.00
2019-05-26T07:55:37.668Z,68.30
2019-05-26T07:58:07.245Z,67.40
2019-05-26T08:00:36.595Z,66.90
2019-05-26T08:03:06.358Z,66.60
2019-05-26T08:05:35.716Z,66.20
2019-05-26T08:08:12.647Z,64.40
2019-05-26T08:10:36.401Z,64.10
2019-05-26T08:13:06.989Z,64.50
2019-05-26T08:15:37.352Z,64.50
2019-05-26T08:18:11.015Z,63.00
2019-05-26T08:20:42.099Z,63.80
2019-05-26T08:23:11.785Z,64.20
2019-05-26T08:25:41.196Z,63.40
2019-05-26T08:28:11.607Z,62.30
2019-05-26T08:30:41.228Z,62.70
2019-05-26T08:33:10.809Z,61.00
2019-05-26T08:35:40.434Z,61.50
2019-05-26T08:38:09.841Z,61.30
2019-05-26T08:40:39.661Z,59.50
2019-05-26T08:43:09.610Z,60.40
2019-05-26T08:45:40.182Z,59.20
2019-05-26T08:48:09.900Z,59.20
2019-05-26T08:50:39.542Z,58.80
2019-05-26T08:53:10.491Z,59.30
2019-05-26T08:55:39.888Z,59.70
2019-05-26T08:58:10.820Z,59.80
2019-05-26T09:00:40.151Z,61.30
2019-05-26T09:03:09.921Z,61.40
2019-05-26T09:05:39.568Z,61.40
2019-05-26T09:08:09.727Z,61.90
2019-05-26T09:10:39.144Z,61.60
2019-05-26T09:13:08.646Z,61.60
2019-05-26T09:15:38.057Z,62.10
2019-05-26T09:18:07.807Z,60.40
2019-05-26T09:20:37.404Z,60.00
2019-05-26T09:23:07.122Z,60.40
2019-05-26T09:25:36.609Z,60.00
2019-05-26T09:28:06.123Z,59.20
2019-05-26T09:30:35.585Z,59.60
2019-05-26T09:33:05.399Z,59.20
2019-05-26T09:35:35.116Z,59.20
2019-05-26T09:38:04.507Z,59.80
2019-05-26T09:40:34.113Z,59.40
2019-05-26T09:43:15.190Z,59.30
2019-05-26T09:45:35.010Z,57.90
2019-05-26T09:48:04.542Z,58.20
2019-05-26T09:50:34.021Z,57.80
2019-05-26T09:53:04.168Z,56.40
2019-05-26T09:55:33.823Z,55.60
2019-05-26T09:58:03.257Z,55.80
2019-05-26T10:00:32.986Z,55.30
2019-05-26T10:03:02.649Z,56.00
2019-05-26T10:05:32.297Z,54.40
2019-05-26T10:08:01.755Z,53.70
2019-05-26T10:10:31.387Z,53.80
2019-05-26T10:13:00.795Z,54.00
2019-05-26T10:15:30.138Z,53.90
2019-05-26T10:17:59.582Z,53.40
2019-05-26T10:20:29.419Z,53.30
2019-05-26T10:22:58.784Z,52.60
2019-05-26T10:25:28.513Z,52.60
2019-05-26T10:27:58.130Z,51.50
2019-05-26T10:30:27.554Z,51.20
2019-05-26T10:32:57.348Z,51.40
2019-05-26T10:35:26.790Z,51.40
2019-05-26T10:37:56.243Z,52.00
2019-05-26T10:40:25.732Z,52.40
2019-05-26T10:42:55.147Z,51.60
2019-05-26T10:45:24.552Z,51.00
2019-05-26T10:47:53.920Z,50.70
2019-05-26T10:50:23.383Z,51.40
2019-05-26T10:52:52.697Z,51.80
2019-05-26T10:55:22.240Z,50.90
2019-05-26T10:57:53.022Z,51.30
2019-05-26T11:00:23.974Z,52.40
2019-05-26T11:02:55.026Z,51.60
2019-05-26T11:05:26.326Z,50.40
2019-05-26T11:07:55.809Z,49.00
2019-05-26T11:10:42.648Z,49.40
2019-05-26T11:13:12.062Z,49.40
2019-05-26T11:15:41.679Z,50.50
2019-05-26T11:18:12.735Z,51.20
2019-05-26T11:20:43.317Z,50.70
2019-05-26T11:23:12.970Z,50.60
2019-05-26T11:25:44.871Z,50.30
2019-05-26T11:28:14.637Z,51.10
2019-05-26T11:30:44.502Z,50.20
2019-05-26T11:33:14.790Z,49.90
2019-05-26T11:35:45.382Z,49.70
2019-05-26T11:38:15.069Z,50.30
2019-05-26T11:41:02.524Z,51.70
2019-05-26T11:43:32.370Z,52.00
2019-05-26T11:46:01.796Z,51.50
2019-05-26T11:48:31.290Z,53.20
2019-05-26T11:51:02.095Z,52.70
2019-05-26T11:53:31.523Z,53.00
2019-05-26T11:56:02.547Z,53.30
2019-05-26T11:58:32.202Z,53.10
2019-05-26T12:01:01.968Z,53.00
2019-05-26T12:03:31.791Z,52.30
2019-05-26T12:06:01.388Z,51.30
2019-05-26T12:08:30.992Z,51.20
2019-05-26T12:11:00.499Z,51.50
2019-05-26T12:13:29.989Z,51.80
2019-05-26T12:15:59.705Z,51.50
2019-05-26T12:18:31.844Z,52.10
2019-05-26T12:21:01.245Z,51.70
2019-05-26T12:23:30.636Z,51.00
2019-05-26T12:26:00.278Z,50.70
2019-05-26T12:28:29.884Z,51.10
2019-05-26T12:30:59.585Z,50.20
2019-05-26T12:33:29.122Z,49.80
2019-05-26T12:35:58.678Z,50.20
2019-05-26T12:38:28.160Z,49.50
2019-05-26T12:40:57.496Z,47.00
2019-05-26T12:43:26.906Z,47.70
2019-05-26T12:45:56.490Z,48.00
2019-05-26T12:48:25.944Z,47.20
2019-05-26T12:50:55.253Z,45.70
2019-05-26T12:53:24.600Z,45.10
2019-05-26T12:55:54.189Z,44.50
2019-05-26T12:58:23.512Z,45.60
2019-05-26T13:00:55.121Z,45.30
2019-05-26T13:03:24.622Z,44.90
2019-05-26T13:05:53.965Z,46.90
2019-05-26T13:08:23.365Z,47.70
2019-05-26T13:10:52.718Z,46.00
2019-05-26T13:13:22.918Z,46.90
2019-05-26T13:15:52.564Z,46.10
2019-05-26T13:18:21.915Z,45.70
2019-05-26T13:20:51.676Z,45.30
2019-05-26T13:23:21.208Z,44.00
2019-05-26T13:25:50.839Z,45.00
2019-05-26T13:28:20.259Z,46.30
2019-05-26T13:30:49.693Z,46.30
2019-05-26T13:33:19.152Z,46.50
2019-05-26T13:35:48.743Z,46.10
2019-05-26T13:38:18.153Z,46.00
2019-05-26T13:40:47.755Z,46.40
2019-05-26T13:43:17.151Z,47.50
2019-05-26T13:45:46.592Z,45.90
2019-05-26T13:48:16.080Z,44.70
2019-05-26T13:50:45.565Z,45.30
2019-05-26T13:53:15.136Z,44.70
2019-05-26T13:55:44.460Z,45.40
2019-05-26T13:58:14.035Z,44.40
2019-05-26T14:00:43.425Z,43.70
2019-05-26T14:03:12.737Z,44.80
2019-05-26T14:05:42.298Z,46.00
2019-05-26T14:08:11.642Z,46.80
2019-05-26T14:10:41.015Z,46.60
2019-05-26T14:13:10.860Z,47.40
2019-05-26T14:15:40.345Z,46.40
2019-05-26T14:18:17.512Z,45.40
2019-05-26T14:20:45.497Z,45.50
2019-05-26T14:23:14.836Z,45.90
2019-05-26T14:25:44.197Z,47.50
2019-05-26T14:28:13.766Z,48.60
2019-05-26T14:30:43.144Z,49.00
2019-05-26T14:33:12.474Z,50.60
2019-05-26T14:35:42.046Z,49.20
2019-05-26T14:38:11.398Z,49.20
2019-05-26T14:40:41.036Z,48.90
2019-05-26T14:43:10.461Z,49.30
2019-05-26T14:45:52.334Z,50.20
2019-05-26T14:48:11.186Z,50.90
2019-05-26T14:50:41.202Z,49.40
2019-05-26T14:53:10.824Z,49.80
2019-05-26T14:55:40.575Z,49.60
2019-05-26T14:58:15.524Z,50.00
2019-05-26T15:00:41.217Z,49.30
2019-05-26T15:03:13.563Z,50.90
2019-05-26T15:05:42.987Z,50.60
2019-05-26T15:08:12.926Z,51.90
2019-05-26T15:10:42.316Z,51.80
2019-05-26T15:13:12.522Z,53.00
2019-05-26T15:15:42.477Z,54.20
2019-05-26T15:18:11.960Z,54.70
2019-05-26T15:20:41.732Z,55.40
2019-05-26T15:23:11.062Z,56.30
2019-05-26T15:25:40.580Z,56.00
2019-05-26T15:28:10.068Z,55.80
2019-05-26T15:30:39.491Z,56.20
2019-05-26T15:33:09.209Z,56.10
2019-05-26T15:35:39.025Z,56.20
2019-05-26T15:38:10.168Z,56.30
2019-05-26T15:40:39.867Z,56.90
2019-05-26T15:43:09.202Z,57.50
2019-05-26T15:45:39.071Z,57.70
2019-05-26T15:48:08.921Z,57.50
2019-05-26T15:50:41.541Z,58.00
2019-05-26T15:53:11.447Z,57.50
2019-05-26T15:55:40.962Z,58.20
2019-05-26T15:58:10.356Z,58.20
2019-05-26T16:00:42.436Z,58.40
2019-05-26T16:03:12.021Z,58.80
2019-05-26T16:05:41.678Z,58.60
2019-05-26T16:08:14.606Z,59.20
2019-05-26T16:10:44.655Z,58.30
2019-05-26T16:13:14.113Z,56.90
2019-05-26T16:15:43.867Z,56.90
2019-05-26T16:18:13.680Z,57.00
2019-05-26T16:20:43.137Z,56.90
2019-05-26T16:23:12.492Z,57.70
2019-05-26T16:25:42.162Z,57.10
2019-05-26T16:28:11.815Z,57.00
2019-05-26T16:30:41.187Z,56.40
2019-05-26T16:33:10.757Z,56.10
2019-05-26T16:35:40.093Z,55.80
2019-05-26T16:38:09.686Z,56.00
2019-05-26T16:40:40.334Z,55.50
2019-05-26T16:43:09.974Z,55.80
2019-05-26T16:45:54.952Z,55.10
2019-05-26T16:48:10.777Z,56.30
2019-05-26T16:50:40.508Z,55.60
2019-05-26T16:53:09.833Z,55.20
2019-05-26T16:55:39.465Z,53.90
2019-05-26T16:58:09.142Z,49.00
2019-05-26T17:00:39.458Z,45.30
2019-05-26T17:03:09.126Z,43.20
2019-05-26T17:05:38.452Z,43.40
2019-05-26T17:08:08.152Z,41.20
2019-05-26T17:10:37.715Z,40.30
2019-05-26T17:13:07.123Z,41.20
2019-05-26T17:15:37.902Z,43.90
2019-05-26T17:18:08.242Z,46.20
2019-05-26T17:20:37.782Z,48.80
2019-05-26T17:23:07.275Z,49.70
2019-05-26T17:25:36.693Z,51.00
2019-05-26T17:28:06.309Z,52.50
2019-05-26T17:30:35.800Z,54.20
2019-05-26T17:33:08.143Z,54.80
2019-05-26T17:35:37.631Z,55.20
2019-05-26T17:38:07.278Z,55.30
2019-05-26T17:40:36.972Z,55.90
2019-05-26T17:43:06.358Z,56.50
2019-05-26T17:45:35.763Z,57.00
2019-05-26T17:48:05.197Z,57.10
2019-05-26T17:50:34.827Z,57.90
2019-05-26T17:53:04.617Z,58.20
2019-05-26T17:55:41.403Z,59.30
2019-05-26T17:58:13.458Z,60.00
2019-05-26T18:00:43.214Z,61.00
2019-05-26T18:03:13.504Z,61.70
2019-05-26T18:05:43.842Z,61.60
2019-05-26T18:08:13.484Z,62.00
2019-05-26T18:10:43.124Z,62.80
2019-05-26T18:13:12.815Z,63.20
2019-05-26T18:15:42.457Z,63.90
2019-05-26T18:18:12.057Z,64.30
2019-05-26T18:20:41.531Z,61.20
2019-05-26T18:23:11.015Z,57.80
2019-05-26T18:25:40.404Z,55.40
2019-05-26T18:28:09.893Z,55.20
2019-05-26T18:30:41.532Z,55.90
2019-05-26T18:33:11.317Z,55.70
2019-05-26T18:35:40.715Z,55.30
2019-05-26T18:38:11.715Z,55.60
2019-05-26T18:40:41.695Z,55.10
2019-05-26T18:43:11.799Z,53.10
2019-05-26T18:45:41.434Z,53.10
2019-05-26T18:48:11.075Z,53.60
2019-05-26T18:50:44.362Z,53.70
2019-05-26T18:53:15.567Z,54.40
2019-05-26T18:55:47.014Z,55.20
2019-05-26T18:58:18.716Z,55.90
2019-05-26T19:00:59.214Z,56.60
2019-05-26T19:03:30.431Z,57.00
2019-05-26T19:06:05.992Z,56.70
2019-05-26T19:08:35.326Z,56.60
2019-05-26T19:11:09.244Z,56.70
2019-05-26T19:13:40.928Z,57.60
2019-05-26T19:16:13.556Z,57.50
2019-05-26T19:18:43.127Z,57.90
2019-05-26T19:21:13.045Z,58.30
2019-05-26T19:23:42.617Z,58.60
2019-05-26T19:26:15.976Z,59.00
2019-05-26T19:28:45.998Z,59.50
2019-05-26T19:31:15.625Z,59.60
2019-05-26T19:33:46.371Z,59.50
2019-05-26T19:36:25.381Z,59.60
2019-05-26T19:38:56.701Z,59.80
2019-05-26T19:41:29.685Z,60.10
2019-05-26T19:43:59.949Z,60.60
2019-05-26T19:46:30.066Z,61.20
2019-05-26T19:48:59.545Z,61.30
2019-05-26T19:51:30.538Z,61.70
2019-05-26T19:54:00.404Z,62.30
2019-05-26T19:56:29.968Z,62.80
2019-05-26T19:59:00.846Z,63.50
2019-05-26T20:01:30.559Z,64.00
2019-05-26T20:04:01.445Z,64.60
2019-05-26T20:06:31.216Z,65.10
2019-05-26T20:09:00.730Z,65.70
2019-05-26T20:11:30.784Z,66.10
2019-05-26T20:14:00.124Z,67.10
2019-05-26T20:16:30.831Z,69.00
2019-05-26T20:19:00.953Z,70.60
2019-05-26T20:21:30.583Z,72.30
2019-05-26T20:24:01.183Z,73.30
2019-05-26T20:26:30.647Z,73.80
2019-05-26T20:29:00.358Z,74.00
2019-05-26T20:31:29.730Z,74.30
2019-05-26T20:33:59.553Z,74.90
2019-05-26T20:36:29.221Z,75.40
2019-05-26T20:38:58.604Z,75.80
2019-05-26T20:41:28.630Z,76.20
2019-05-26T20:43:58.584Z,76.20
2019-05-26T20:46:28.077Z,76.80
2019-05-26T20:48:59.569Z,77.60
2019-05-26T20:51:29.875Z,78.00
2019-05-26T20:53:59.337Z,78.40
2019-05-26T20:56:28.916Z,79.00
2019-05-26T20:58:58.462Z,79.30
2019-05-26T21:01:28.062Z,79.70
2019-05-26T21:03:57.878Z,79.80
2019-05-26T21:06:27.366Z,80.30
2019-05-26T21:08:57.160Z,80.40
2019-05-26T21:11:27.002Z,80.50
2019-05-26T21:13:59.905Z,80.30
2019-05-26T21:16:29.387Z,80.10
2019-05-26T21:18:58.856Z,80.20
2019-05-26T21:21:28.463Z,80.00
2019-05-26T21:23:58.087Z,79.90
2019-05-26T21:26:27.752Z,79.90
2019-05-26T21:28:57.549Z,80.00
2019-05-26T21:31:27.413Z,80.00
2019-05-26T21:33:56.831Z,80.00
2019-05-26T21:36:26.698Z,79.90
2019-05-26T21:38:56.626Z,79.50
2019-05-26T21:41:26.405Z,79.50
2019-05-26T21:43:56.236Z,79.70
2019-05-26T21:46:25.836Z,79.40
2019-05-26T21:48:55.232Z,79.30
2019-05-26T21:51:24.792Z,79.30
2019-05-26T21:53:54.346Z,79.40
2019-05-26T21:56:24.022Z,79.60
2019-05-26T21:58:53.383Z,79.70
2019-05-26T22:01:23.168Z,79.50
2019-05-26T22:03:52.541Z,79.60
2019-05-26T22:06:21.909Z,80.00
2019-05-26T22:08:51.230Z,80.10
2019-05-26T22:11:20.808Z,80.10
2019-05-26T22:13:50.226Z,80.20
2019-05-26T22:16:19.541Z,80.30
2019-05-26T22:18:48.859Z,80.40
2019-05-26T22:21:18.443Z,80.70
2019-05-26T22:23:47.771Z,80.80
2019-05-26T22:26:17.408Z,80.90
2019-05-26T22:28:46.767Z,81.10
2019-05-26T22:31:17.317Z,81.30
2019-05-26T22:33:47.048Z,81.40
2019-05-26T22:36:16.374Z,81.50
2019-05-26T22:38:45.704Z,81.70
2019-05-26T22:41:15.103Z,81.70
2019-05-26T22:43:44.408Z,81.80
2019-05-26T22:46:13.723Z,82.00
2019-05-26T22:48:43.289Z,81.90
2019-05-26T22:51:13.837Z,82.00
2019-05-26T22:53:43.163Z,82.00
2019-05-26T22:56:12.614Z,82.10
2019-05-26T22:58:42.189Z,82.60
2019-05-26T23:01:12.102Z,83.00
2019-05-26T23:03:41.778Z,83.00
2019-05-26T23:06:11.406Z,82.90
2019-05-26T23:08:40.769Z,83.30
2019-05-26T23:11:10.206Z,83.90
2019-05-26T23:13:39.601Z,84.80
2019-05-26T23:16:08.939Z,85.40
2019-05-26T23:18:38.567Z,86.30
2019-05-26T23:21:08.225Z,86.60
2019-05-26T23:23:37.542Z,86.50
2019-05-26T23:26:07.797Z,86.60
2019-05-26T23:28:37.123Z,86.60
2019-05-26T23:31:06.443Z,87.30
2019-05-26T23:33:36.011Z,89.30
2019-05-26T23:36:05.687Z,90.80
2019-05-26T23:38:35.074Z,92.40
2019-05-26T23:41:04.679Z,93.80
2019-05-26T23:43:34.335Z,94.00
2019-05-26T23:46:03.746Z,94.20
2019-05-26T23:48:33.080Z,94.20
2019-05-26T23:51:02.389Z,94.00
2019-05-26T23:53:31.977Z,94.10
2019-05-26T23:56:01.566Z,94.00
2019-05-26T23:58:31.229Z,94.10
